createdAt,value
2022-11-14T00:00:57.741Z,101444.63
2022-11-14T00:03:30.847Z,101441.88
2022-11-14T00:06:07.357Z,101439.27
2022-11-14T00:08:43.804Z,101438.08
2022-11-14T00:11:16.935Z,101437.39
2022-11-14T00:13:45.572Z,101441.70
2022-11-14T00:16:13.929Z,101439.29
2022-11-14T00:18:48.780Z,101432.73
2022-11-14T00:21:23.550Z,101438.76
2022-11-14T00:23:58.468Z,101429.81
2022-11-14T00:26:33.465Z,101431.35
2022-11-14T00:29:08.360Z,101430.48
2022-11-14T00:31:43.264Z,101429.11
2022-11-14T00:34:16.352Z,101423.77
2022-11-14T00:36:51.084Z,101428.08
2022-11-14T00:39:26.104Z,101425.66
2022-11-14T00:42:00.942Z,101422.56
2022-11-14T00:44:35.500Z,101414.80
2022-11-14T00:47:08.573Z,101409.97
2022-11-14T00:49:41.658Z,101405.31
2022-11-14T00:52:16.604Z,101399.98
2022-11-14T00:54:51.469Z,101396.52
2022-11-14T00:57:24.367Z,101397.06
2022-11-14T00:59:57.417Z,101395.16
2022-11-14T01:02:30.531Z,101395.85
2022-11-14T01:05:03.657Z,101392.38
2022-11-14T01:07:38.547Z,101393.06
2022-11-14T01:10:13.524Z,101388.09
2022-11-14T01:12:42.052Z,101383.61
2022-11-14T01:15:17.148Z,101387.06
2022-11-14T01:17:50.320Z,101380.84
2022-11-14T01:20:19.286Z,101379.11
2022-11-14T01:22:53.781Z,101380.52
2022-11-14T01:25:28.550Z,101378.77
2022-11-14T01:28:01.639Z,101377.59
2022-11-14T01:30:34.699Z,101370.88
2022-11-14T01:33:11.619Z,101370.70
2022-11-14T01:35:44.472Z,101366.55
2022-11-14T01:38:18.935Z,101360.88
2022-11-14T01:40:47.696Z,101358.98
2022-11-14T01:43:20.673Z,101352.94
2022-11-14T01:45:59.580Z,101353.27
2022-11-14T01:48:44.487Z,101352.41
2022-11-14T01:51:31.576Z,101349.14
2022-11-14T01:54:29.897Z,101345.02
2022-11-14T01:57:05.446Z,101349.87
2022-11-14T01:59:54.390Z,101342.98
2022-11-14T02:02:29.267Z,101340.06
2022-11-14T02:05:16.737Z,101334.73
2022-11-14T02:07:49.750Z,101330.09
2022-11-14T02:10:22.973Z,101324.08
2022-11-14T02:12:56.064Z,101321.66
2022-11-14T02:15:44.203Z,101321.48
2022-11-14T02:18:23.081Z,101319.59
2022-11-14T02:20:56.273Z,101307.17
2022-11-14T02:23:32.562Z,101306.34
2022-11-14T02:26:06.307Z,101312.36
2022-11-14T02:28:39.481Z,101307.53
2022-11-14T02:31:12.616Z,101307.34
2022-11-14T02:33:48.017Z,101308.89
2022-11-14T02:36:22.656Z,101307.20
2022-11-14T02:38:57.143Z,101306.34
2022-11-14T02:41:30.325Z,101302.55
2022-11-14T02:44:03.392Z,101303.57
2022-11-14T02:46:38.155Z,101300.65
2022-11-14T02:49:11.260Z,101297.37
2022-11-14T02:51:46.109Z,101294.27
2022-11-14T02:54:19.000Z,101294.78
2022-11-14T02:56:53.747Z,101290.15
2022-11-14T02:59:28.717Z,101284.45
2022-11-14T03:02:03.408Z,101278.95
2022-11-14T03:04:38.229Z,101280.88
2022-11-14T03:07:12.937Z,101278.65
2022-11-14T03:09:45.902Z,101277.09
2022-11-14T03:12:34.043Z,101278.81
2022-11-14T03:15:11.501Z,101275.20
2022-11-14T03:17:46.435Z,101270.04
2022-11-14T03:20:22.066Z,101265.08
2022-11-14T03:22:56.901Z,101253.56
2022-11-14T03:25:29.876Z,101250.98
2022-11-14T03:28:04.779Z,101251.67
2022-11-14T03:30:43.607Z,101248.59
2022-11-14T03:33:18.560Z,101249.11
2022-11-14T03:35:53.756Z,101243.80
2022-11-14T03:38:27.078Z,101253.45
2022-11-14T03:41:15.409Z,101256.41
2022-11-14T03:43:48.477Z,101253.67
2022-11-14T03:46:21.420Z,101247.16
2022-11-14T03:49:00.115Z,101253.20
2022-11-14T03:51:34.762Z,101247.02
2022-11-14T03:54:10.799Z,101242.54
2022-11-14T03:56:45.435Z,101240.15
2022-11-14T03:59:18.423Z,101234.64
2022-11-14T04:01:52.962Z,101227.77
2022-11-14T04:04:22.520Z,101226.05
2022-11-14T04:06:56.037Z,101229.12
2022-11-14T04:09:34.917Z,101238.60
2022-11-14T04:12:11.367Z,101237.75
2022-11-14T04:14:48.451Z,101235.70
2022-11-14T04:17:23.497Z,101237.59
2022-11-14T04:19:58.007Z,101232.10
2022-11-14T04:22:32.840Z,101227.33
2022-11-14T04:25:11.451Z,101219.77
2022-11-14T04:27:46.100Z,101227.56
2022-11-14T04:30:24.962Z,101227.23
2022-11-14T04:32:57.973Z,101226.39
2022-11-14T04:35:30.933Z,101223.48
2022-11-14T04:38:04.317Z,101222.63
2022-11-14T04:40:39.156Z,101217.46
2022-11-14T04:43:14.196Z,101212.99
2022-11-14T04:45:47.396Z,101206.78
2022-11-14T04:48:22.131Z,101211.77
2022-11-14T04:50:55.153Z,101212.79
2022-11-14T04:53:29.927Z,101212.61
2022-11-14T04:56:02.991Z,101212.77
2022-11-14T04:58:37.615Z,101212.27
2022-11-14T05:01:13.950Z,101208.65
2022-11-14T05:03:48.670Z,101208.31
2022-11-14T05:06:23.592Z,101209.16
2022-11-14T05:08:57.973Z,101210.55
2022-11-14T05:11:32.710Z,101210.89
2022-11-14T05:14:07.647Z,101210.38
2022-11-14T05:16:42.150Z,101207.27
2022-11-14T05:19:21.011Z,101207.95
2022-11-14T05:21:53.911Z,101204.88
2022-11-14T05:24:29.055Z,101196.09
2022-11-14T05:27:02.204Z,101191.24
2022-11-14T05:29:35.106Z,101192.64
2022-11-14T05:32:16.321Z,101187.45
2022-11-14T05:34:50.947Z,101185.76
2022-11-14T05:37:27.627Z,101185.94
2022-11-14T05:40:01.931Z,101184.73
2022-11-14T05:42:34.960Z,101188.16
2022-11-14T05:45:10.343Z,101187.98
2022-11-14T05:47:45.193Z,101189.54
2022-11-14T05:50:18.281Z,101192.64
2022-11-14T05:52:51.416Z,101189.70
2022-11-14T05:55:25.232Z,101191.24
2022-11-14T05:58:00.230Z,101197.60
2022-11-14T06:00:39.484Z,101205.19
2022-11-14T06:03:17.145Z,101206.72
2022-11-14T06:05:51.690Z,101203.27
2022-11-14T06:08:24.744Z,101204.81
2022-11-14T06:11:02.364Z,101206.89
2022-11-14T06:13:37.466Z,101205.02
2022-11-14T06:16:20.321Z,101208.80
2022-11-14T06:18:55.437Z,101203.81
2022-11-14T06:21:31.788Z,101205.36
2022-11-14T06:24:06.926Z,101206.05
2022-11-14T06:26:39.980Z,101208.80
2022-11-14T06:29:13.900Z,101207.77
2022-11-14T06:31:43.482Z,101204.67
2022-11-14T06:34:18.083Z,101196.77
2022-11-14T06:36:52.744Z,101200.04
2022-11-14T06:39:44.645Z,101215.70
2022-11-14T06:42:19.328Z,101218.64
2022-11-14T06:45:07.740Z,101221.23
2022-11-14T06:47:42.325Z,101217.96
2022-11-14T06:50:15.466Z,101216.92
2022-11-14T06:53:07.611Z,101213.13
2022-11-14T06:55:40.659Z,101205.39
2022-11-14T06:58:13.730Z,101203.33
2022-11-14T07:00:48.404Z,101204.88
2022-11-14T07:03:23.234Z,101204.34
2022-11-14T07:06:24.561Z,101203.98
2022-11-14T07:09:00.283Z,101195.73
2022-11-14T07:11:36.427Z,101198.96
2022-11-14T07:14:15.322Z,101198.45
2022-11-14T07:16:50.173Z,101198.46
2022-11-14T07:19:24.935Z,101188.45
2022-11-14T07:21:59.626Z,101193.45
2022-11-14T07:24:36.350Z,101193.64
2022-11-14T07:27:12.161Z,101188.44
2022-11-14T07:29:45.280Z,101181.02
2022-11-14T07:32:18.035Z,101178.27
2022-11-14T07:34:46.479Z,101176.35
2022-11-14T07:37:14.943Z,101176.85
2022-11-14T07:39:44.405Z,101172.52
2022-11-14T07:42:18.409Z,101172.68
2022-11-14T07:44:46.850Z,101165.95
2022-11-14T07:47:15.247Z,101163.67
2022-11-14T07:49:44.220Z,101160.73
2022-11-14T07:52:17.122Z,101156.41
2022-11-14T07:54:45.664Z,101160.89
2022-11-14T07:57:14.077Z,101150.70
2022-11-14T07:59:47.211Z,101154.27
2022-11-14T08:02:19.735Z,101146.81
2022-11-14T08:04:48.340Z,101146.80
2022-11-14T08:07:17.893Z,101159.34
2022-11-14T08:09:46.401Z,101162.02
2022-11-14T08:12:19.411Z,101169.23
2022-11-14T08:14:48.532Z,101171.77
2022-11-14T08:17:24.752Z,101169.66
2022-11-14T08:19:57.589Z,101167.86
2022-11-14T08:22:31.518Z,101165.42
2022-11-14T08:25:00.218Z,101157.66
2022-11-14T08:27:34.968Z,101159.98
2022-11-14T08:30:08.771Z,101157.19
2022-11-14T08:32:54.970Z,101152.52
2022-11-14T08:35:27.754Z,101150.95
2022-11-14T08:38:03.286Z,101148.83
2022-11-14T08:40:32.327Z,101151.60
2022-11-14T08:43:07.145Z,101152.88
2022-11-14T08:45:42.154Z,101155.77
2022-11-14T08:48:15.338Z,101162.09
2022-11-14T08:50:50.467Z,101162.38
2022-11-14T08:53:23.651Z,101147.70
2022-11-14T08:55:58.422Z,101146.09
2022-11-14T08:58:34.773Z,101134.46
2022-11-14T09:01:11.817Z,101133.62
2022-11-14T09:03:45.244Z,101136.90
2022-11-14T09:06:18.418Z,101138.47
2022-11-14T09:08:53.379Z,101138.13
2022-11-14T09:11:26.368Z,101138.22
2022-11-14T09:13:59.511Z,101138.15
2022-11-14T09:16:33.974Z,101131.73
2022-11-14T09:19:07.085Z,101127.27
2022-11-14T09:21:41.835Z,101130.92
2022-11-14T09:24:14.964Z,101124.56
2022-11-14T09:26:56.571Z,101127.09
2022-11-14T09:29:30.447Z,101126.34
2022-11-14T09:31:59.602Z,101129.77
2022-11-14T09:34:28.256Z,101121.52
2022-11-14T09:37:01.357Z,101128.27
2022-11-14T09:39:38.305Z,101123.13
2022-11-14T09:42:47.819Z,101121.05
2022-11-14T09:45:22.653Z,101116.66
2022-11-14T09:48:14.810Z,101118.89
2022-11-14T09:51:21.043Z,101113.78
2022-11-14T09:54:20.363Z,101111.19
2022-11-14T09:56:53.604Z,101101.16
2022-11-14T09:59:22.120Z,101100.59
2022-11-14T10:02:03.400Z,101087.48
2022-11-14T10:05:08.305Z,101090.69
2022-11-14T10:08:05.187Z,101082.11
2022-11-14T10:11:09.475Z,101073.56
2022-11-14T10:13:51.427Z,101069.78
2022-11-14T10:16:43.962Z,101071.71
2022-11-14T10:19:20.162Z,101070.01
2022-11-14T10:22:09.023Z,101071.49
2022-11-14T10:25:04.910Z,101074.31
2022-11-14T10:27:55.433Z,101074.20
2022-11-14T10:30:42.581Z,101058.16
2022-11-14T10:33:30.524Z,101048.36
2022-11-14T10:36:42.797Z,101050.16
2022-11-14T10:39:39.810Z,101057.04
2022-11-14T10:42:37.290Z,101046.52
2022-11-14T10:45:27.744Z,101042.59
2022-11-14T10:48:11.013Z,101039.41
2022-11-14T10:50:50.364Z,101036.01
2022-11-14T10:53:57.031Z,101039.73
2022-11-14T10:56:30.918Z,101034.75
2022-11-14T10:58:59.730Z,101021.96
2022-11-14T11:01:35.856Z,101014.05
2022-11-14T11:04:25.211Z,101010.30
2022-11-14T11:06:56.735Z,100998.58
2022-11-14T11:09:46.577Z,100991.83
2022-11-14T11:12:20.668Z,100985.48
2022-11-14T11:15:08.313Z,100987.30
2022-11-14T11:17:42.790Z,100992.11
2022-11-14T11:20:23.147Z,100993.40
2022-11-14T11:23:22.054Z,100993.73
2022-11-14T11:26:16.178Z,100994.08
2022-11-14T11:28:44.481Z,100994.40
2022-11-14T11:31:12.867Z,100996.98
2022-11-14T11:33:43.240Z,100995.05
2022-11-14T11:36:19.230Z,100998.08
2022-11-14T11:38:48.288Z,100993.43
2022-11-14T11:44:33.529Z,100983.51
2022-11-14T11:47:08.666Z,100978.16
2022-11-14T11:49:45.408Z,100979.19
2022-11-14T11:52:37.866Z,100971.67
2022-11-14T11:55:10.576Z,100971.39
2022-11-14T11:58:03.566Z,100971.49
2022-11-14T12:00:33.166Z,100972.76
2022-11-14T12:03:10.492Z,100968.36
2022-11-14T12:05:54.226Z,100965.66
2022-11-14T12:08:28.461Z,100968.04
2022-11-14T12:10:58.905Z,100963.91
2022-11-14T12:14:04.991Z,100958.77
2022-11-14T12:17:02.921Z,100958.01
2022-11-14T12:19:31.206Z,100952.45
2022-11-14T12:22:11.245Z,100949.73
2022-11-14T12:24:42.269Z,100947.44
2022-11-14T12:27:34.211Z,100944.25
2022-11-14T12:30:25.069Z,100938.48
2022-11-14T12:33:30.027Z,100934.75
2022-11-14T12:36:02.206Z,100930.98
2022-11-14T12:38:43.643Z,100927.30
2022-11-14T12:41:13.395Z,100922.98
2022-11-14T12:43:43.721Z,100919.73
2022-11-14T12:46:14.091Z,100921.69
2022-11-14T12:48:44.437Z,100918.41
2022-11-14T12:51:28.040Z,100920.98
2022-11-14T12:53:58.190Z,100913.30
2022-11-14T12:56:53.800Z,100912.98
2022-11-14T12:59:53.187Z,100909.73
2022-11-14T13:02:49.799Z,100909.63
2022-11-14T13:06:16.142Z,100906.77
2022-11-14T13:09:09.808Z,100907.89
2022-11-14T13:12:02.802Z,100909.24
2022-11-14T13:14:50.836Z,100909.92
2022-11-14T13:17:42.722Z,100907.96
2022-11-14T13:20:44.618Z,100903.75
2022-11-14T13:23:33.701Z,100901.23
2022-11-14T13:26:11.505Z,100901.39
2022-11-14T13:28:50.192Z,100897.41
2022-11-14T13:31:19.755Z,100893.08
2022-11-14T13:33:50.572Z,100890.14
2022-11-14T13:36:31.010Z,100888.41
2022-11-14T13:39:21.801Z,100887.80
2022-11-14T13:42:26.429Z,100881.66
2022-11-14T13:45:01.652Z,100881.89
2022-11-14T13:47:51.770Z,100875.48
2022-11-14T13:50:29.920Z,100868.89
2022-11-14T13:52:59.651Z,100866.73
2022-11-14T13:55:33.679Z,100865.27
2022-11-14T13:58:22.886Z,100864.11
2022-11-14T14:01:16.358Z,100858.08
2022-11-14T14:04:09.406Z,100856.73
2022-11-14T14:07:14.303Z,100851.43
2022-11-14T14:10:09.750Z,100849.40
2022-11-14T14:12:39.439Z,100849.97
2022-11-14T14:15:16.430Z,100845.69
2022-11-14T14:18:49.272Z,100839.23
2022-11-14T14:21:33.500Z,100838.50
2022-11-14T14:24:12.985Z,100838.45
2022-11-14T14:27:02.848Z,100839.45
2022-11-14T14:29:48.312Z,100834.92
2022-11-14T14:32:19.173Z,100832.46
2022-11-14T14:34:47.710Z,100835.69
2022-11-14T14:37:24.642Z,100832.17
2022-11-14T14:40:01.456Z,100830.57
2022-11-14T14:42:49.498Z,100830.67
2022-11-14T14:45:21.170Z,100829.83
2022-11-14T14:47:58.841Z,100830.66
2022-11-14T14:50:35.989Z,100823.89
2022-11-14T14:53:05.087Z,100821.32
2022-11-14T14:55:35.930Z,100814.58
2022-11-14T14:58:28.490Z,100818.36
2022-11-14T15:01:07.547Z,100814.35
2022-11-14T15:03:49.170Z,100808.10
2022-11-14T15:06:20.753Z,100812.39
2022-11-14T15:08:49.937Z,100810.63
2022-11-14T15:11:18.420Z,100810.74
2022-11-14T15:13:49.484Z,100808.60
2022-11-14T15:16:18.201Z,100808.20
2022-11-14T15:18:48.447Z,100805.21
2022-11-14T15:21:27.497Z,100802.38
2022-11-14T15:24:12.988Z,100800.74
2022-11-14T15:26:45.389Z,100799.12
2022-11-14T15:29:27.387Z,100802.14
2022-11-14T15:31:58.870Z,100799.84
2022-11-14T15:34:31.669Z,100800.30
2022-11-14T15:37:14.759Z,100796.45
2022-11-14T15:39:44.223Z,100791.89
2022-11-14T15:42:16.713Z,100789.73
2022-11-14T15:44:47.129Z,100787.56
2022-11-14T15:47:39.519Z,100785.73
2022-11-14T15:50:13.729Z,100781.82
2022-11-14T15:53:22.967Z,100777.39
2022-11-14T15:55:51.322Z,100778.67
2022-11-14T15:58:28.152Z,100777.70
2022-11-14T16:00:58.410Z,100776.23
2022-11-14T16:03:27.190Z,100775.95
2022-11-14T16:05:55.722Z,100776.36
2022-11-14T16:08:23.989Z,100780.90
2022-11-14T16:10:52.378Z,100780.63
2022-11-14T16:13:20.785Z,100778.47
2022-11-14T16:15:49.202Z,100774.73
2022-11-14T16:18:17.594Z,100774.42
2022-11-14T16:20:46.008Z,100772.05
2022-11-14T16:23:14.484Z,100772.27
2022-11-14T16:25:42.812Z,100769.74
2022-11-14T16:28:11.283Z,100769.08
2022-11-14T16:30:39.695Z,100763.11
2022-11-14T16:33:08.936Z,100761.95
2022-11-14T16:35:37.522Z,100758.89
2022-11-14T16:38:06.990Z,100759.45
2022-11-14T16:40:35.415Z,100760.84
2022-11-14T16:43:04.314Z,100756.58
2022-11-14T16:45:35.560Z,100759.19
2022-11-14T16:48:04.078Z,100757.28
2022-11-14T16:50:32.708Z,100750.77
2022-11-14T16:53:01.130Z,100750.96
2022-11-14T16:55:29.700Z,100750.82
2022-11-14T16:57:58.207Z,100753.43
2022-11-14T17:00:28.342Z,100755.17
2022-11-14T17:03:03.178Z,100755.07
2022-11-14T17:05:31.735Z,100745.27
2022-11-14T17:08:00.148Z,100745.15
2022-11-14T17:10:28.796Z,100747.78
2022-11-14T17:12:57.565Z,100742.85
2022-11-14T17:15:26.122Z,100747.50
2022-11-14T17:17:54.750Z,100745.80
2022-11-14T17:20:27.307Z,100746.34
2022-11-14T17:22:56.610Z,100746.40
2022-11-14T17:25:25.957Z,100743.86
2022-11-14T17:27:55.257Z,100745.42
2022-11-14T17:30:24.088Z,100746.33
2022-11-14T17:32:56.360Z,100748.42
2022-11-14T17:35:25.415Z,100747.60
2022-11-14T17:37:58.980Z,100748.50
2022-11-14T17:40:29.486Z,100748.36
2022-11-14T17:42:58.254Z,100744.81
2022-11-14T17:45:26.977Z,100748.23
2022-11-14T17:47:55.965Z,100745.88
2022-11-14T17:50:24.480Z,100749.70
2022-11-14T17:52:53.856Z,100745.95
2022-11-14T17:55:22.657Z,100745.98
2022-11-14T17:57:51.266Z,100744.63
2022-11-14T18:00:20.564Z,100745.34
2022-11-14T18:02:50.647Z,100741.92
2022-11-14T18:05:20.207Z,100745.23
2022-11-14T18:07:50.069Z,100744.55
2022-11-14T18:10:19.339Z,100739.77
2022-11-14T18:12:48.413Z,100736.02
2022-11-14T18:15:17.678Z,100740.49
2022-11-14T18:17:46.342Z,100732.79
2022-11-14T18:20:15.682Z,100738.14
2022-11-14T18:22:44.736Z,100736.09
2022-11-14T18:25:14.250Z,100736.80
2022-11-14T18:27:44.050Z,100734.05
2022-11-14T18:30:39.602Z,100729.27
2022-11-14T18:33:03.042Z,100727.55
2022-11-14T18:35:32.370Z,100726.88
2022-11-14T18:38:02.275Z,100726.36
2022-11-14T18:40:32.044Z,100724.31
2022-11-14T18:43:01.332Z,100725.01
2022-11-14T18:45:30.619Z,100725.31
2022-11-14T18:48:00.470Z,100718.61
2022-11-14T18:50:31.532Z,100723.42
2022-11-14T18:53:01.110Z,100721.71
2022-11-14T18:55:30.609Z,100718.08
2022-11-14T18:58:00.048Z,100714.65
2022-11-14T19:00:33.808Z,100715.16
2022-11-14T19:03:06.297Z,100705.21
2022-11-14T19:05:37.520Z,100709.33
2022-11-14T19:08:08.232Z,100717.23
2022-11-14T19:10:37.490Z,100710.85
2022-11-14T19:13:06.794Z,100709.98
2022-11-14T19:15:35.917Z,100703.61
2022-11-14T19:18:05.300Z,100699.14
2022-11-14T19:20:34.884Z,100699.32
2022-11-14T19:23:04.311Z,100699.48
2022-11-14T19:25:38.082Z,100694.84
2022-11-14T19:28:07.358Z,100701.89
2022-11-14T19:30:37.072Z,100698.46
2022-11-14T19:33:07.393Z,100693.80
2022-11-14T19:35:40.195Z,100691.91
2022-11-14T19:38:10.085Z,100692.79
2022-11-14T19:40:40.328Z,100690.36
2022-11-14T19:43:12.273Z,100688.66
2022-11-14T19:45:42.425Z,100688.33
2022-11-14T19:48:14.646Z,100688.52
2022-11-14T19:50:44.396Z,100682.37
2022-11-14T19:53:14.389Z,100684.61
2022-11-14T19:55:44.511Z,100678.07
2022-11-14T19:58:13.544Z,100676.73
2022-11-14T20:00:42.785Z,100675.88
2022-11-14T20:03:15.082Z,100669.37
2022-11-14T20:05:44.399Z,100667.50
2022-11-14T20:08:13.483Z,100668.88
2022-11-14T20:10:48.658Z,100667.50
2022-11-14T20:13:17.091Z,100666.48
2022-11-14T20:15:45.703Z,100664.95
2022-11-14T20:18:14.540Z,100666.00
2022-11-14T20:20:43.932Z,100660.35
2022-11-14T20:23:16.963Z,100651.27
2022-11-14T20:25:52.515Z,100645.97
2022-11-14T20:28:22.578Z,100646.86
2022-11-14T20:30:52.233Z,100644.83
2022-11-14T20:33:21.981Z,100640.87
2022-11-14T20:35:51.913Z,100638.13
2022-11-14T20:38:21.649Z,100639.19
2022-11-14T20:40:59.566Z,100631.82
2022-11-14T20:43:29.677Z,100629.61
2022-11-14T20:46:13.716Z,100631.18
2022-11-14T20:48:43.464Z,100624.17
2022-11-14T20:51:14.595Z,100625.91
2022-11-14T20:53:44.326Z,100625.77
2022-11-14T20:56:16.956Z,100623.20
2022-11-14T20:58:48.932Z,100625.81
2022-11-14T21:01:18.321Z,100619.47
2022-11-14T21:03:48.474Z,100617.79
2022-11-14T21:06:17.617Z,100617.80
2022-11-14T21:08:46.912Z,100618.34
2022-11-14T21:11:18.429Z,100618.54
2022-11-14T21:13:56.828Z,100620.80
2022-11-14T21:16:37.296Z,100618.41
2022-11-14T21:19:07.739Z,100615.69
2022-11-14T21:21:39.098Z,100614.85
2022-11-14T21:24:07.879Z,100616.08
2022-11-14T21:26:39.781Z,100617.10
2022-11-14T21:29:13.224Z,100621.91
2022-11-14T21:31:45.005Z,100618.65
2022-11-14T21:34:16.963Z,100614.52
2022-11-14T21:36:47.099Z,100620.69
2022-11-14T21:39:17.689Z,100619.14
2022-11-14T21:41:48.656Z,100619.13
2022-11-14T21:44:18.166Z,100615.85
2022-11-14T21:46:48.943Z,100610.89
2022-11-14T21:49:17.480Z,100609.49
2022-11-14T21:51:45.843Z,100608.64
2022-11-14T21:54:14.305Z,100604.32
2022-11-14T21:56:42.570Z,100604.52
2022-11-14T21:59:15.604Z,100596.61
2022-11-14T22:02:05.690Z,100596.07
2022-11-14T22:04:35.333Z,100590.09
2022-11-14T22:07:08.590Z,100589.60
2022-11-14T22:09:41.116Z,100586.00
2022-11-14T22:12:12.565Z,100585.67
2022-11-14T22:14:40.926Z,100588.10
2022-11-14T22:17:09.267Z,100589.31
2022-11-14T22:19:37.442Z,100589.83
2022-11-14T22:22:05.820Z,100594.98
2022-11-14T22:24:34.109Z,100587.44
2022-11-14T22:27:02.427Z,100588.98
2022-11-14T22:29:30.735Z,100584.67
2022-11-14T22:31:59.064Z,100589.33
2022-11-14T22:34:27.378Z,100582.27
2022-11-14T22:36:55.688Z,100584.50
2022-11-14T22:39:30.063Z,100579.17
2022-11-14T22:41:58.435Z,100582.63
2022-11-14T22:44:26.766Z,100581.77
2022-11-14T22:46:55.068Z,100579.55
2022-11-14T22:49:23.395Z,100580.95
2022-11-14T22:51:51.617Z,100581.96
2022-11-14T22:54:20.205Z,100578.02
2022-11-14T22:56:48.582Z,100576.34
2022-11-14T22:59:16.994Z,100572.05
2022-11-14T23:01:44.021Z,100572.39
2022-11-14T23:04:11.133Z,100564.48
2022-11-14T23:06:39.611Z,100564.83
2022-11-14T23:09:07.974Z,100565.35
2022-11-14T23:11:36.271Z,100560.38
2022-11-14T23:14:04.550Z,100555.41
2022-11-14T23:16:34.283Z,100551.48
2022-11-14T23:19:04.437Z,100552.16
2022-11-14T23:21:36.538Z,100546.16
2022-11-14T23:24:08.625Z,100543.77
2022-11-14T23:26:37.015Z,100545.13
2022-11-14T23:29:05.319Z,100540.16
2022-11-14T23:31:33.688Z,100536.38
2022-11-14T23:34:01.936Z,100535.52
2022-11-14T23:36:30.506Z,100535.50
2022-11-14T23:42:58.604Z,100530.31
2022-11-14T23:45:27.049Z,100527.88
2022-11-14T23:47:55.491Z,100529.92
2022-11-14T23:50:24.025Z,100524.92
2022-11-14T23:52:52.385Z,100519.42
2022-11-14T23:55:20.859Z,100515.63
2022-11-14T23:57:49.235Z,100512.71
